Terminal Aerodrome Forecast
Issued by NWS

Home | Current Version | Previous Version | Text Only | Print | Product List | Glossary On
Versions: 1 2 3 4 5 6 7 8 9 10 11 12 13 14 15 16 17 18
000
FTUS42 KTBW 171100
TAFLAL
TAF
KLAL 171122Z 1712/1812 02008KT P6SM BKN050
     FM171400 07014G22KT P6SM BKN035
     FM172100 07015G24KT P6SM VCSH SCT040 BKN150
     FM180100 07011KT P6SM SCT040 OVC100=

USA.gov is the U.S. government's official web portal to all federal, state and local government web resources and services.